Airfield :
LOGIN :

Register | Disclaimer

   EN    FR    IT 

 










Legend :    VFR   Marginal VFR   IFR   Intensive IFR   Very Intensive IFR
Visi :
Ceiling :
>= 8 km
>= 3000ft
5 to 8 km
1000 to 3000 ft
1500m to 5 km
500 to 1000 ft
800 to 1500m
200 to 500 ft
< 800m
< 200 ft
Symbols :   Thunderstorms  Fog  Heavy snow  Heavy precipitations  Wind > 20 kt
SIGMETs :     Misc.  Thunderstorms  Icing  Turbulence  Mountain Waves  Volcanic Ashes







- Airport Elevation : 1521 ft
- IATA code : NCY
- Download approach charts


LFLP - Annecy

CURRENT METAR :
  • 201430Z AUTO 31005KT 230V360 9999 SCT048 SCT058 24/16 Q1015 TEMPO VRB15G25KT 4000 SHRA SCT055CB

EXPIRED METARs :
  • 201400Z AUTO 29005KT 220V340 9999 FEW046 25/16 Q1015 TEMPO VRB15G25KT 4000 SHRA BKN050CB
  • 201330Z AUTO 21004KT 130V300 9999 ///TCU 25/15 Q1015 TEMPO VRB15G25KT 4000 SHRA BKN050CB
  • 201300Z AUTO 25003KT 170V320 9999 ///TCU 24/16 Q1015 TEMPO VRB15G25KT 4000 SHRA BKN050CB
  • 201230Z AUTO 25004KT 190V310 9999 ///CB 24/15 Q1015 TEMPO VRB15G25KT 4000 SHRA
  • 201200Z AUTO VRB02KT 9999 ///TCU 23/15 Q1016 TEMPO VRB15G25KT 4000 SHRA BKN050CB

TAF TAF LFLP
Valid from the 20 at 15:00 until the 21 at 15:00 UTC


201400Z 2015/2115 22005KT 9999 FEW060
PROB40
TEMPO 2015/2020 4000 SHRA BKN060TCU
PROB30
TEMPO 2016/2019 VRB15G25KT -TSRA SCT055CB
PROB40
TEMPO 2023/2106 -SHRA SCT080TCU
BECMG 2108/2111 34008KT
BECMG 2113/2115 VRB15G25KT 3000 TSRA SCT010 BKN040CB
No reported NOTAMs for that airfield.
1 SIGMET reported for the Marseille FIR (LFMM) :
 
Frequent thunderstorms
LFMM SIGMET 4 VALID 201500/201700 LFPW
LFMM MARSEILLE FIR/UIR FRQ TS OBS WI N4215 E00245 - N4215 E00230 - N4245 E00230 - N4230 E00315 - N4215 E00245 TOP FL350 MOV NE 20KT INTSF=



MET'MAP, your aeronautical weather chart ! - Copyright ORBIFLY December 2007 - Disclaimer

ORBIFLY MET'MAP TEAM :

Programming & Development : Alexandra Zaïnal
Concept & Development : Baudouin d'Aumeries
Co-Development & Prog : Marc-Olivier Méhu
Technical & hardware support : Manuel Goepfert

Contact : metmap@orbifly.com




SOURCES & CREDITS :

   NOAA